sensor_id;sensor_type;location;lat;lon;timestamp;P1;durP1;ratioP1;P2;durP2;ratioP2
8964;SDS011;4517;49.020;12.066;2023-04-24T00:01:42;92.07;;;85.50;;
8964;SDS011;4517;49.020;12.066;2023-04-24T00:04:08;92.73;;;86.50;;
8964;SDS011;4517;49.020;12.066;2023-04-24T00:06:35;86.83;;;80.80;;
8964;SDS011;4517;49.020;12.066;2023-04-24T00:09:02;85.03;;;79.23;;
8964;SDS011;4517;49.020;12.066;2023-04-24T00:11:28;88.97;;;82.77;;
8964;SDS011;4517;49.020;12.066;2023-04-24T00:13:54;81.47;;;75.87;;
8964;SDS011;4517;49.020;12.066;2023-04-24T00:16:21;87.50;;;81.03;;
8964;SDS011;4517;49.020;12.066;2023-04-24T00:18:47;84.70;;;78.50;;
8964;SDS011;4517;49.020;12.066;2023-04-24T00:21:13;84.57;;;78.20;;
8964;SDS011;4517;49.020;12.066;2023-04-24T00:23:39;87.33;;;81.23;;
8964;SDS011;4517;49.020;12.066;2023-04-24T00:26:05;75.00;;;69.70;;
8964;SDS011;4517;49.020;12.066;2023-04-24T00:28:32;84.83;;;78.83;;
8964;SDS011;4517;49.020;12.066;2023-04-24T00:30:57;78.70;;;73.20;;
8964;SDS011;4517;49.020;12.066;2023-04-24T00:33:23;72.40;;;67.00;;
8964;SDS011;4517;49.020;12.066;2023-04-24T00:35:48;79.70;;;74.03;;
8964;SDS011;4517;49.020;12.066;2023-04-24T00:38:14;82.57;;;76.77;;
8964;SDS011;4517;49.020;12.066;2023-04-24T00:40:39;79.70;;;73.90;;
8964;SDS011;4517;49.020;12.066;2023-04-24T00:43:05;74.83;;;69.23;;
8964;SDS011;4517;49.020;12.066;2023-04-24T00:45:31;71.80;;;66.23;;
8964;SDS011;4517;49.020;12.066;2023-04-24T00:47:57;72.80;;;67.00;;
8964;SDS011;4517;49.020;12.066;2023-04-24T00:50:23;76.47;;;70.53;;
8964;SDS011;4517;49.020;12.066;2023-04-24T00:52:49;72.93;;;67.13;;
8964;SDS011;4517;49.020;12.066;2023-04-24T00:55:15;69.93;;;64.63;;
8964;SDS011;4517;49.020;12.066;2023-04-24T00:57:41;80.73;;;74.47;;
8964;SDS011;4517;49.020;12.066;2023-04-24T01:00:08;77.67;;;71.83;;
8964;SDS011;4517;49.020;12.066;2023-04-24T01:02:38;74.03;;;68.10;;
8964;SDS011;4517;49.020;12.066;2023-04-24T01:05:09;70.33;;;64.50;;
8964;SDS011;4517;49.020;12.066;2023-04-24T01:07:35;74.43;;;68.17;;
8964;SDS011;4517;49.020;12.066;2023-04-24T01:10:03;68.40;;;63.10;;
8964;SDS011;4517;49.020;12.066;2023-04-24T01:12:29;68.27;;;62.83;;
8964;SDS011;4517;49.020;12.066;2023-04-24T01:14:55;73.40;;;67.23;;
8964;SDS011;4517;49.020;12.066;2023-04-24T01:17:22;73.33;;;66.93;;
8964;SDS011;4517;49.020;12.066;2023-04-24T01:19:48;73.20;;;67.60;;
8964;SDS011;4517;49.020;12.066;2023-04-24T01:22:14;68.93;;;63.17;;
8964;SDS011;4517;49.020;12.066;2023-04-24T01:24:41;68.07;;;62.67;;
8964;SDS011;4517;49.020;12.066;2023-04-24T01:27:07;64.57;;;58.80;;
8964;SDS011;4517;49.020;12.066;2023-04-24T01:29:34;70.53;;;64.07;;
8964;SDS011;4517;49.020;12.066;2023-04-24T01:32:00;65.70;;;60.50;;
8964;SDS011;4517;49.020;12.066;2023-04-24T01:34:26;65.07;;;59.70;;
8964;SDS011;4517;49.020;12.066;2023-04-24T01:39:41;70.63;;;65.00;;
8964;SDS011;4517;49.020;12.066;2023-04-24T01:42:09;74.40;;;68.60;;
8964;SDS011;4517;49.020;12.066;2023-04-24T01:44:34;67.23;;;61.93;;
8964;SDS011;4517;49.020;12.066;2023-04-24T01:47:00;69.90;;;64.30;;
8964;SDS011;4517;49.020;12.066;2023-04-24T01:49:31;66.43;;;60.97;;
8964;SDS011;4517;49.020;12.066;2023-04-24T01:51:57;67.63;;;61.60;;
8964;SDS011;4517;49.020;12.066;2023-04-24T01:54:23;66.07;;;60.60;;
8964;SDS011;4517;49.020;12.066;2023-04-24T01:56:48;66.17;;;60.60;;
8964;SDS011;4517;49.020;12.066;2023-04-24T01:59:15;65.37;;;59.87;;
8964;SDS011;4517;49.020;12.066;2023-04-24T02:01:42;67.23;;;61.43;;
8964;SDS011;4517;49.020;12.066;2023-04-24T02:04:08;71.13;;;65.10;;
8964;SDS011;4517;49.020;12.066;2023-04-24T02:06:33;66.63;;;61.23;;
8964;SDS011;4517;49.020;12.066;2023-04-24T02:08:59;65.87;;;59.33;;
8964;SDS011;4517;49.020;12.066;2023-04-24T02:11:25;65.07;;;59.17;;
8964;SDS011;4517;49.020;12.066;2023-04-24T02:13:51;69.23;;;63.03;;
8964;SDS011;4517;49.020;12.066;2023-04-24T02:16:18;70.27;;;64.20;;
8964;SDS011;4517;49.020;12.066;2023-04-24T02:18:44;65.03;;;59.10;;
8964;SDS011;4517;49.020;12.066;2023-04-24T02:21:10;71.77;;;65.37;;
8964;SDS011;4517;49.020;12.066;2023-04-24T02:23:36;67.53;;;61.87;;
8964;SDS011;4517;49.020;12.066;2023-04-24T02:26:01;71.97;;;65.63;;
8964;SDS011;4517;49.020;12.066;2023-04-24T02:28:27;72.93;;;65.93;;
8964;SDS011;4517;49.020;12.066;2023-04-24T02:30:52;68.70;;;62.63;;
8964;SDS011;4517;49.020;12.066;2023-04-24T02:33:18;69.40;;;63.10;;
8964;SDS011;4517;49.020;12.066;2023-04-24T02:35:43;65.23;;;59.10;;
8964;SDS011;4517;49.020;12.066;2023-04-24T02:38:09;63.97;;;57.97;;
8964;SDS011;4517;49.020;12.066;2023-04-24T02:40:35;64.00;;;58.50;;
8964;SDS011;4517;49.020;12.066;2023-04-24T02:43:00;65.03;;;58.37;;
8964;SDS011;4517;49.020;12.066;2023-04-24T02:45:26;63.80;;;58.20;;
8964;SDS011;4517;49.020;12.066;2023-04-24T02:47:51;65.70;;;59.13;;
8964;SDS011;4517;49.020;12.066;2023-04-24T02:50:17;63.17;;;57.07;;
8964;SDS011;4517;49.020;12.066;2023-04-24T02:52:42;59.27;;;54.10;;
8964;SDS011;4517;49.020;12.066;2023-04-24T02:55:08;59.90;;;54.23;;
8964;SDS011;4517;49.020;12.066;2023-04-24T02:57:34;59.37;;;54.23;;
8964;SDS011;4517;49.020;12.066;2023-04-24T02:59:59;61.73;;;56.20;;
8964;SDS011;4517;49.020;12.066;2023-04-24T03:02:25;61.90;;;56.13;;
8964;SDS011;4517;49.020;12.066;2023-04-24T03:04:50;61.90;;;55.63;;
8964;SDS011;4517;49.020;12.066;2023-04-24T03:07:16;59.93;;;54.47;;
8964;SDS011;4517;49.020;12.066;2023-04-24T03:09:41;61.33;;;55.83;;
8964;SDS011;4517;49.020;12.066;2023-04-24T03:12:07;61.30;;;55.87;;
8964;SDS011;4517;49.020;12.066;2023-04-24T03:14:32;60.00;;;54.20;;
8964;SDS011;4517;49.020;12.066;2023-04-24T03:16:58;57.70;;;52.37;;
8964;SDS011;4517;49.020;12.066;2023-04-24T03:19:24;59.10;;;53.67;;
8964;SDS011;4517;49.020;12.066;2023-04-24T03:21:49;58.40;;;52.80;;
8964;SDS011;4517;49.020;12.066;2023-04-24T03:24:15;57.03;;;51.43;;
8964;SDS011;4517;49.020;12.066;2023-04-24T03:26:40;58.60;;;53.20;;
8964;SDS011;4517;49.020;12.066;2023-04-24T03:29:06;58.93;;;53.63;;
8964;SDS011;4517;49.020;12.066;2023-04-24T03:31:32;60.00;;;54.50;;
8964;SDS011;4517;49.020;12.066;2023-04-24T03:33:57;57.73;;;52.47;;
8964;SDS011;4517;49.020;12.066;2023-04-24T03:36:23;58.70;;;53.47;;
8964;SDS011;4517;49.020;12.066;2023-04-24T03:38:48;58.63;;;53.43;;
8964;SDS011;4517;49.020;12.066;2023-04-24T03:41:14;56.70;;;51.67;;
8964;SDS011;4517;49.020;12.066;2023-04-24T03:43:39;55.00;;;49.70;;
8964;SDS011;4517;49.020;12.066;2023-04-24T03:46:05;67.17;;;55.40;;
8964;SDS011;4517;49.020;12.066;2023-04-24T03:48:30;55.83;;;50.13;;
8964;SDS011;4517;49.020;12.066;2023-04-24T03:50:56;55.13;;;49.90;;
8964;SDS011;4517;49.020;12.066;2023-04-24T03:53:21;53.80;;;48.80;;
8964;SDS011;4517;49.020;12.066;2023-04-24T03:55:47;54.87;;;50.03;;
8964;SDS011;4517;49.020;12.066;2023-04-24T03:58:12;52.23;;;47.63;;
8964;SDS011;4517;49.020;12.066;2023-04-24T04:00:41;51.83;;;47.03;;
8964;SDS011;4517;49.020;12.066;2023-04-24T04:03:06;48.47;;;44.33;;
8964;SDS011;4517;49.020;12.066;2023-04-24T04:05:32;48.43;;;44.40;;
8964;SDS011;4517;49.020;12.066;2023-04-24T04:07:57;47.87;;;43.87;;
8964;SDS011;4517;49.020;12.066;2023-04-24T04:10:23;49.10;;;45.20;;
8964;SDS011;4517;49.020;12.066;2023-04-24T04:12:49;47.87;;;44.07;;
8964;SDS011;4517;49.020;12.066;2023-04-24T04:15:14;44.87;;;41.37;;
8964;SDS011;4517;49.020;12.066;2023-04-24T04:17:40;43.27;;;39.77;;
8964;SDS011;4517;49.020;12.066;2023-04-24T04:20:06;48.07;;;44.23;;
8964;SDS011;4517;49.020;12.066;2023-04-24T04:22:34;48.93;;;44.53;;
8964;SDS011;4517;49.020;12.066;2023-04-24T04:25:01;44.57;;;40.60;;
8964;SDS011;4517;49.020;12.066;2023-04-24T04:27:26;45.93;;;42.43;;
8964;SDS011;4517;49.020;12.066;2023-04-24T04:29:53;42.23;;;38.93;;
8964;SDS011;4517;49.020;12.066;2023-04-24T04:32:21;42.43;;;39.00;;
8964;SDS011;4517;49.020;12.066;2023-04-24T04:34:47;42.00;;;38.80;;
8964;SDS011;4517;49.020;12.066;2023-04-24T04:37:14;40.67;;;37.37;;
8964;SDS011;4517;49.020;12.066;2023-04-24T04:39:39;41.00;;;37.80;;
8964;SDS011;4517;49.020;12.066;2023-04-24T04:42:05;41.67;;;38.23;;
8964;SDS011;4517;49.020;12.066;2023-04-24T04:44:31;38.10;;;35.30;;
8964;SDS011;4517;49.020;12.066;2023-04-24T04:46:57;40.17;;;36.87;;
8964;SDS011;4517;49.020;12.066;2023-04-24T04:49:24;36.60;;;33.70;;
8964;SDS011;4517;49.020;12.066;2023-04-24T04:51:49;35.60;;;33.00;;
8964;SDS011;4517;49.020;12.066;2023-04-24T04:54:15;36.23;;;33.10;;
8964;SDS011;4517;49.020;12.066;2023-04-24T04:56:41;35.90;;;33.07;;
8964;SDS011;4517;49.020;12.066;2023-04-24T04:59:07;35.10;;;32.27;;
8964;SDS011;4517;49.020;12.066;2023-04-24T05:01:32;32.90;;;30.20;;
8964;SDS011;4517;49.020;12.066;2023-04-24T05:03:58;32.33;;;29.90;;
8964;SDS011;4517;49.020;12.066;2023-04-24T05:06:24;31.63;;;29.17;;
8964;SDS011;4517;49.020;12.066;2023-04-24T05:08:50;31.97;;;29.57;;
8964;SDS011;4517;49.020;12.066;2023-04-24T05:11:16;30.83;;;28.43;;
8964;SDS011;4517;49.020;12.066;2023-04-24T05:13:41;31.23;;;28.87;;
8964;SDS011;4517;49.020;12.066;2023-04-24T05:16:07;27.37;;;25.03;;
8964;SDS011;4517;49.020;12.066;2023-04-24T05:18:32;27.70;;;25.70;;
8964;SDS011;4517;49.020;12.066;2023-04-24T05:20:58;27.70;;;25.70;;
8964;SDS011;4517;49.020;12.066;2023-04-24T05:23:23;27.07;;;25.27;;
8964;SDS011;4517;49.020;12.066;2023-04-24T05:25:49;28.63;;;26.50;;
8964;SDS011;4517;49.020;12.066;2023-04-24T05:28:14;28.10;;;25.57;;
8964;SDS011;4517;49.020;12.066;2023-04-24T05:30:40;26.67;;;24.50;;
8964;SDS011;4517;49.020;12.066;2023-04-24T05:33:06;24.70;;;22.80;;
8964;SDS011;4517;49.020;12.066;2023-04-24T05:35:33;25.17;;;23.23;;
8964;SDS011;4517;49.020;12.066;2023-04-24T05:37:58;26.17;;;23.90;;
8964;SDS011;4517;49.020;12.066;2023-04-24T05:40:24;22.37;;;20.87;;
8964;SDS011;4517;49.020;12.066;2023-04-24T05:42:49;20.93;;;19.17;;
8964;SDS011;4517;49.020;12.066;2023-04-24T05:45:15;20.97;;;19.47;;
8964;SDS011;4517;49.020;12.066;2023-04-24T05:47:42;22.33;;;20.57;;
8964;SDS011;4517;49.020;12.066;2023-04-24T05:50:09;22.70;;;20.97;;
8964;SDS011;4517;49.020;12.066;2023-04-24T05:52:35;21.20;;;19.80;;
8964;SDS011;4517;49.020;12.066;2023-04-24T05:55:00;21.37;;;19.40;;
8964;SDS011;4517;49.020;12.066;2023-04-24T05:57:26;19.80;;;18.50;;
8964;SDS011;4517;49.020;12.066;2023-04-24T05:59:51;19.20;;;17.80;;
8964;SDS011;4517;49.020;12.066;2023-04-24T06:02:17;20.17;;;18.57;;
8964;SDS011;4517;49.020;12.066;2023-04-24T06:04:43;19.00;;;17.70;;
8964;SDS011;4517;49.020;12.066;2023-04-24T06:07:10;17.90;;;16.70;;
8964;SDS011;4517;49.020;12.066;2023-04-24T06:09:36;17.10;;;15.80;;
8964;SDS011;4517;49.020;12.066;2023-04-24T06:12:01;15.83;;;14.83;;
8964;SDS011;4517;49.020;12.066;2023-04-24T06:14:27;16.57;;;15.47;;
8964;SDS011;4517;49.020;12.066;2023-04-24T06:16:53;16.47;;;15.30;;
8964;SDS011;4517;49.020;12.066;2023-04-24T06:19:18;15.97;;;14.77;;
8964;SDS011;4517;49.020;12.066;2023-04-24T06:21:44;15.97;;;14.67;;
8964;SDS011;4517;49.020;12.066;2023-04-24T06:24:10;15.80;;;14.70;;
8964;SDS011;4517;49.020;12.066;2023-04-24T06:26:39;14.80;;;13.90;;
8964;SDS011;4517;49.020;12.066;2023-04-24T06:29:05;14.47;;;13.57;;
8964;SDS011;4517;49.020;12.066;2023-04-24T06:31:32;14.10;;;13.03;;
8964;SDS011;4517;49.020;12.066;2023-04-24T06:34:02;14.10;;;13.00;;
8964;SDS011;4517;49.020;12.066;2023-04-24T06:36:28;14.17;;;13.17;;
8964;SDS011;4517;49.020;12.066;2023-04-24T06:38:53;13.77;;;12.63;;
8964;SDS011;4517;49.020;12.066;2023-04-24T06:41:19;14.03;;;12.83;;
8964;SDS011;4517;49.020;12.066;2023-04-24T06:43:46;12.60;;;11.90;;
8964;SDS011;4517;49.020;12.066;2023-04-24T06:46:13;13.07;;;12.33;;
8964;SDS011;4517;49.020;12.066;2023-04-24T06:48:39;13.13;;;12.13;;
8964;SDS011;4517;49.020;12.066;2023-04-24T06:51:04;15.00;;;13.17;;
8964;SDS011;4517;49.020;12.066;2023-04-24T06:53:30;12.30;;;11.57;;
8964;SDS011;4517;49.020;12.066;2023-04-24T06:55:56;13.37;;;12.57;;
8964;SDS011;4517;49.020;12.066;2023-04-24T06:58:22;13.00;;;11.93;;
8964;SDS011;4517;49.020;12.066;2023-04-24T07:00:48;12.50;;;11.80;;
8964;SDS011;4517;49.020;12.066;2023-04-24T07:03:15;12.27;;;11.57;;
8964;SDS011;4517;49.020;12.066;2023-04-24T07:05:41;13.40;;;12.60;;
8964;SDS011;4517;49.020;12.066;2023-04-24T07:08:07;12.90;;;12.20;;
8964;SDS011;4517;49.020;12.066;2023-04-24T07:10:33;12.20;;;11.40;;
8964;SDS011;4517;49.020;12.066;2023-04-24T07:13:00;25.80;;;24.23;;
8964;SDS011;4517;49.020;12.066;2023-04-24T07:15:27;11.30;;;10.70;;
8964;SDS011;4517;49.020;12.066;2023-04-24T07:17:53;12.17;;;11.40;;
8964;SDS011;4517;49.020;12.066;2023-04-24T07:20:18;11.20;;;10.60;;
8964;SDS011;4517;49.020;12.066;2023-04-24T07:22:44;10.87;;;10.27;;
8964;SDS011;4517;49.020;12.066;2023-04-24T07:25:10;10.60;;;10.00;;
8964;SDS011;4517;49.020;12.066;2023-04-24T07:27:35;12.63;;;11.73;;
8964;SDS011;4517;49.020;12.066;2023-04-24T07:30:02;11.20;;;10.57;;
8964;SDS011;4517;49.020;12.066;2023-04-24T07:32:29;11.33;;;10.53;;
8964;SDS011;4517;49.020;12.066;2023-04-24T07:34:55;10.50;;;10.00;;
8964;SDS011;4517;49.020;12.066;2023-04-24T07:37:22;11.43;;;10.73;;
8964;SDS011;4517;49.020;12.066;2023-04-24T07:39:48;11.63;;;10.70;;
8964;SDS011;4517;49.020;12.066;2023-04-24T07:42:14;11.00;;;10.40;;
8964;SDS011;4517;49.020;12.066;2023-04-24T07:44:40;10.57;;;10.07;;
8964;SDS011;4517;49.020;12.066;2023-04-24T07:47:05;9.67;;;9.03;;
8964;SDS011;4517;49.020;12.066;2023-04-24T07:49:31;10.60;;;9.90;;
8964;SDS011;4517;49.020;12.066;2023-04-24T07:51:59;11.33;;;10.80;;
8964;SDS011;4517;49.020;12.066;2023-04-24T07:54:26;10.80;;;10.20;;
8964;SDS011;4517;49.020;12.066;2023-04-24T07:56:53;12.50;;;11.60;;
8964;SDS011;4517;49.020;12.066;2023-04-24T07:59:19;11.30;;;10.70;;
8964;SDS011;4517;49.020;12.066;2023-04-24T08:01:45;12.33;;;11.63;;
8964;SDS011;4517;49.020;12.066;2023-04-24T08:04:10;12.00;;;11.40;;
8964;SDS011;4517;49.020;12.066;2023-04-24T08:06:36;12.13;;;11.37;;
8964;SDS011;4517;49.020;12.066;2023-04-24T08:09:02;11.50;;;10.90;;
8964;SDS011;4517;49.020;12.066;2023-04-24T08:11:28;11.37;;;10.77;;
8964;SDS011;4517;49.020;12.066;2023-04-24T08:13:53;12.53;;;11.63;;
8964;SDS011;4517;49.020;12.066;2023-04-24T08:16:19;13.07;;;12.10;;
8964;SDS011;4517;49.020;12.066;2023-04-24T08:18:45;12.70;;;12.00;;
8964;SDS011;4517;49.020;12.066;2023-04-24T08:21:11;14.47;;;13.47;;
8964;SDS011;4517;49.020;12.066;2023-04-24T08:23:38;11.67;;;11.07;;
8964;SDS011;4517;49.020;12.066;2023-04-24T08:26:03;11.97;;;11.37;;
8964;SDS011;4517;49.020;12.066;2023-04-24T08:28:29;11.87;;;11.17;;
8964;SDS011;4517;49.020;12.066;2023-04-24T08:30:55;12.47;;;11.50;;
8964;SDS011;4517;49.020;12.066;2023-04-24T08:33:23;18.33;;;16.83;;
8964;SDS011;4517;49.020;12.066;2023-04-24T08:35:49;16.87;;;15.97;;
8964;SDS011;4517;49.020;12.066;2023-04-24T08:38:15;15.80;;;14.70;;
8964;SDS011;4517;49.020;12.066;2023-04-24T08:40:41;15.73;;;14.70;;
8964;SDS011;4517;49.020;12.066;2023-04-24T08:43:07;15.30;;;14.40;;
8964;SDS011;4517;49.020;12.066;2023-04-24T08:45:33;15.23;;;13.97;;
8964;SDS011;4517;49.020;12.066;2023-04-24T08:48:00;19.37;;;17.90;;
8964;SDS011;4517;49.020;12.066;2023-04-24T08:50:27;20.57;;;19.17;;
8964;SDS011;4517;49.020;12.066;2023-04-24T08:52:54;20.97;;;19.70;;
8964;SDS011;4517;49.020;12.066;2023-04-24T08:55:20;20.77;;;19.47;;
8964;SDS011;4517;49.020;12.066;2023-04-24T08:57:50;22.07;;;20.60;;
8964;SDS011;4517;49.020;12.066;2023-04-24T09:00:18;22.60;;;20.93;;
8964;SDS011;4517;49.020;12.066;2023-04-24T09:02:48;20.40;;;19.30;;
8964;SDS011;4517;49.020;12.066;2023-04-24T09:10:50;18.33;;;17.30;;
8964;SDS011;4517;49.020;12.066;2023-04-24T09:13:31;18.10;;;17.10;;
8964;SDS011;4517;49.020;12.066;2023-04-24T09:15:59;17.80;;;16.70;;
8964;SDS011;4517;49.020;12.066;2023-04-24T09:24:22;17.70;;;16.70;;
8964;SDS011;4517;49.020;12.066;2023-04-24T09:29:55;16.73;;;15.90;;
8964;SDS011;4517;49.020;12.066;2023-04-24T09:32:22;17.23;;;16.03;;
8964;SDS011;4517;49.020;12.066;2023-04-24T09:34:50;17.20;;;16.20;;
8964;SDS011;4517;49.020;12.066;2023-04-24T09:37:46;17.47;;;16.47;;
8964;SDS011;4517;49.020;12.066;2023-04-24T09:40:17;16.63;;;15.63;;
8964;SDS011;4517;49.020;12.066;2023-04-24T09:45:21;14.07;;;13.47;;
8964;SDS011;4517;49.020;12.066;2023-04-24T09:47:52;11.50;;;11.00;;
8964;SDS011;4517;49.020;12.066;2023-04-24T09:50:19;12.73;;;12.13;;
8964;SDS011;4517;49.020;12.066;2023-04-24T09:52:46;11.50;;;10.90;;
8964;SDS011;4517;49.020;12.066;2023-04-24T09:55:21;12.20;;;11.60;;
8964;SDS011;4517;49.020;12.066;2023-04-24T09:58:01;13.10;;;12.30;;
8964;SDS011;4517;49.020;12.066;2023-04-24T10:00:30;12.00;;;11.30;;
8964;SDS011;4517;49.020;12.066;2023-04-24T10:03:01;13.10;;;12.40;;
8964;SDS011;4517;49.020;12.066;2023-04-24T10:05:36;11.93;;;11.33;;
8964;SDS011;4517;49.020;12.066;2023-04-24T10:08:04;12.50;;;11.90;;
8964;SDS011;4517;49.020;12.066;2023-04-24T10:10:35;12.53;;;11.87;;
8964;SDS011;4517;49.020;12.066;2023-04-24T10:13:11;13.30;;;12.60;;
8964;SDS011;4517;49.020;12.066;2023-04-24T10:15:41;13.03;;;12.33;;
8964;SDS011;4517;49.020;12.066;2023-04-24T10:18:07;13.17;;;12.13;;
8964;SDS011;4517;49.020;12.066;2023-04-24T10:20:36;13.10;;;12.40;;
8964;SDS011;4517;49.020;12.066;2023-04-24T10:23:03;13.60;;;12.90;;
8964;SDS011;4517;49.020;12.066;2023-04-24T10:25:30;13.80;;;13.10;;
8964;SDS011;4517;49.020;12.066;2023-04-24T10:27:57;13.00;;;12.40;;
8964;SDS011;4517;49.020;12.066;2023-04-24T10:30:30;13.67;;;12.97;;
8964;SDS011;4517;49.020;12.066;2023-04-24T10:33:00;13.53;;;12.27;;
8964;SDS011;4517;49.020;12.066;2023-04-24T10:35:27;13.97;;;13.23;;
8964;SDS011;4517;49.020;12.066;2023-04-24T10:37:58;12.53;;;11.73;;
8964;SDS011;4517;49.020;12.066;2023-04-24T10:40:32;12.53;;;11.83;;
8964;SDS011;4517;49.020;12.066;2023-04-24T10:42:59;13.43;;;12.63;;
8964;SDS011;4517;49.020;12.066;2023-04-24T10:45:28;13.03;;;12.23;;
8964;SDS011;4517;49.020;12.066;2023-04-24T10:50:41;13.13;;;12.43;;
8964;SDS011;4517;49.020;12.066;2023-04-24T10:53:15;13.07;;;12.47;;
8964;SDS011;4517;49.020;12.066;2023-04-24T10:55:46;12.77;;;12.17;;
8964;SDS011;4517;49.020;12.066;2023-04-24T10:58:12;13.23;;;12.53;;
8964;SDS011;4517;49.020;12.066;2023-04-24T11:00:39;12.97;;;12.33;;
8964;SDS011;4517;49.020;12.066;2023-04-24T11:03:22;13.10;;;12.50;;
8964;SDS011;4517;49.020;12.066;2023-04-24T11:05:54;12.03;;;11.17;;
8964;SDS011;4517;49.020;12.066;2023-04-24T11:08:44;13.20;;;12.50;;
8964;SDS011;4517;49.020;12.066;2023-04-24T11:11:11;12.90;;;12.20;;
8964;SDS011;4517;49.020;12.066;2023-04-24T11:18:51;13.47;;;12.67;;
8964;SDS011;4517;49.020;12.066;2023-04-24T11:21:19;12.40;;;11.60;;
8964;SDS011;4517;49.020;12.066;2023-04-24T11:23:47;13.77;;;13.07;;
8964;SDS011;4517;49.020;12.066;2023-04-24T11:26:14;13.00;;;12.30;;
8964;SDS011;4517;49.020;12.066;2023-04-24T11:29:05;14.27;;;13.30;;
8964;SDS011;4517;49.020;12.066;2023-04-24T11:34:13;12.77;;;12.17;;
8964;SDS011;4517;49.020;12.066;2023-04-24T11:36:39;14.10;;;13.40;;
8964;SDS011;4517;49.020;12.066;2023-04-24T11:39:07;13.67;;;12.97;;
8964;SDS011;4517;49.020;12.066;2023-04-24T11:41:33;14.03;;;13.23;;
8964;SDS011;4517;49.020;12.066;2023-04-24T11:44:00;12.53;;;11.83;;
8964;SDS011;4517;49.020;12.066;2023-04-24T11:46:31;11.67;;;10.97;;
8964;SDS011;4517;49.020;12.066;2023-04-24T11:48:58;12.57;;;11.97;;
8964;SDS011;4517;49.020;12.066;2023-04-24T11:51:24;13.03;;;12.43;;
8964;SDS011;4517;49.020;12.066;2023-04-24T11:53:51;11.97;;;11.23;;
8964;SDS011;4517;49.020;12.066;2023-04-24T11:56:18;15.57;;;14.60;;
8964;SDS011;4517;49.020;12.066;2023-04-24T11:58:44;11.47;;;10.77;;
8964;SDS011;4517;49.020;12.066;2023-04-24T12:01:14;12.00;;;11.03;;
8964;SDS011;4517;49.020;12.066;2023-04-24T12:03:40;12.07;;;11.17;;
8964;SDS011;4517;49.020;12.066;2023-04-24T12:06:09;12.00;;;11.40;;
8964;SDS011;4517;49.020;12.066;2023-04-24T12:08:36;12.53;;;11.80;;
8964;SDS011;4517;49.020;12.066;2023-04-24T12:11:05;12.37;;;11.57;;
8964;SDS011;4517;49.020;12.066;2023-04-24T12:13:33;12.90;;;11.97;;
8964;SDS011;4517;49.020;12.066;2023-04-24T12:16:02;13.40;;;12.60;;
8964;SDS011;4517;49.020;12.066;2023-04-24T12:18:29;12.80;;;12.10;;
8964;SDS011;4517;49.020;12.066;2023-04-24T12:21:14;12.13;;;11.53;;
8964;SDS011;4517;49.020;12.066;2023-04-24T12:23:47;13.40;;;12.70;;
8964;SDS011;4517;49.020;12.066;2023-04-24T12:26:17;13.23;;;12.40;;
8964;SDS011;4517;49.020;12.066;2023-04-24T12:28:46;12.23;;;11.63;;
8964;SDS011;4517;49.020;12.066;2023-04-24T12:31:16;12.83;;;12.20;;
8964;SDS011;4517;49.020;12.066;2023-04-24T12:33:42;12.87;;;11.97;;
8964;SDS011;4517;49.020;12.066;2023-04-24T12:36:11;12.00;;;11.40;;
8964;SDS011;4517;49.020;12.066;2023-04-24T12:38:38;12.70;;;12.00;;
8964;SDS011;4517;49.020;12.066;2023-04-24T12:41:10;12.60;;;11.70;;
8964;SDS011;4517;49.020;12.066;2023-04-24T12:43:37;13.10;;;12.30;;
8964;SDS011;4517;49.020;12.066;2023-04-24T12:46:03;12.70;;;11.90;;
8964;SDS011;4517;49.020;12.066;2023-04-24T12:48:29;11.50;;;10.90;;
8964;SDS011;4517;49.020;12.066;2023-04-24T12:50:58;12.60;;;12.00;;
8964;SDS011;4517;49.020;12.066;2023-04-24T12:53:28;12.40;;;11.80;;
8964;SDS011;4517;49.020;12.066;2023-04-24T12:55:55;12.53;;;11.93;;
8964;SDS011;4517;49.020;12.066;2023-04-24T12:58:21;12.27;;;11.67;;
8964;SDS011;4517;49.020;12.066;2023-04-24T13:00:47;13.97;;;13.33;;
8964;SDS011;4517;49.020;12.066;2023-04-24T13:03:13;11.47;;;10.87;;
8964;SDS011;4517;49.020;12.066;2023-04-24T13:05:39;11.53;;;11.00;;
8964;SDS011;4517;49.020;12.066;2023-04-24T13:08:05;13.00;;;12.30;;
8964;SDS011;4517;49.020;12.066;2023-04-24T13:10:31;18.23;;;17.17;;
8964;SDS011;4517;49.020;12.066;2023-04-24T13:12:56;12.03;;;11.40;;
8964;SDS011;4517;49.020;12.066;2023-04-24T13:15:22;12.70;;;11.83;;
8964;SDS011;4517;49.020;12.066;2023-04-24T13:17:48;12.80;;;11.93;;
8964;SDS011;4517;49.020;12.066;2023-04-24T13:20:14;12.57;;;11.87;;
8964;SDS011;4517;49.020;12.066;2023-04-24T13:22:39;12.67;;;11.97;;
8964;SDS011;4517;49.020;12.066;2023-04-24T13:25:05;11.87;;;11.17;;
8964;SDS011;4517;49.020;12.066;2023-04-24T13:27:32;14.17;;;13.47;;
8964;SDS011;4517;49.020;12.066;2023-04-24T13:29:57;13.07;;;12.43;;
8964;SDS011;4517;49.020;12.066;2023-04-24T13:32:23;17.60;;;16.80;;
8964;SDS011;4517;49.020;12.066;2023-04-24T13:34:48;13.47;;;12.77;;
8964;SDS011;4517;49.020;12.066;2023-04-24T13:37:17;12.60;;;11.90;;
8964;SDS011;4517;49.020;12.066;2023-04-24T13:39:42;13.00;;;12.20;;
8964;SDS011;4517;49.020;12.066;2023-04-24T13:42:08;12.70;;;11.90;;
8964;SDS011;4517;49.020;12.066;2023-04-24T13:44:34;13.43;;;12.73;;
8964;SDS011;4517;49.020;12.066;2023-04-24T13:46:59;12.20;;;11.60;;
8964;SDS011;4517;49.020;12.066;2023-04-24T13:49:25;13.13;;;12.43;;
8964;SDS011;4517;49.020;12.066;2023-04-24T13:51:51;13.67;;;12.97;;
8964;SDS011;4517;49.020;12.066;2023-04-24T13:54:18;12.90;;;12.20;;
8964;SDS011;4517;49.020;12.066;2023-04-24T13:56:44;12.70;;;12.10;;
8964;SDS011;4517;49.020;12.066;2023-04-24T13:59:11;12.50;;;11.90;;
8964;SDS011;4517;49.020;12.066;2023-04-24T14:01:39;12.80;;;12.10;;
8964;SDS011;4517;49.020;12.066;2023-04-24T14:04:05;12.73;;;12.13;;
8964;SDS011;4517;49.020;12.066;2023-04-24T14:06:30;12.80;;;11.93;;
8964;SDS011;4517;49.020;12.066;2023-04-24T14:08:57;13.57;;;12.43;;
8964;SDS011;4517;49.020;12.066;2023-04-24T14:11:23;13.23;;;12.63;;
8964;SDS011;4517;49.020;12.066;2023-04-24T14:13:48;12.63;;;11.90;;
8964;SDS011;4517;49.020;12.066;2023-04-24T14:16:14;12.97;;;12.27;;
8964;SDS011;4517;49.020;12.066;2023-04-24T14:18:40;13.40;;;12.50;;
8964;SDS011;4517;49.020;12.066;2023-04-24T14:21:06;12.43;;;11.83;;
8964;SDS011;4517;49.020;12.066;2023-04-24T14:23:32;12.53;;;11.93;;
8964;SDS011;4517;49.020;12.066;2023-04-24T14:25:58;12.20;;;11.60;;
8964;SDS011;4517;49.020;12.066;2023-04-24T14:28:24;11.93;;;11.33;;
8964;SDS011;4517;49.020;12.066;2023-04-24T14:30:51;12.10;;;11.50;;
8964;SDS011;4517;49.020;12.066;2023-04-24T14:33:17;11.63;;;11.03;;
8964;SDS011;4517;49.020;12.066;2023-04-24T14:35:43;12.90;;;12.20;;
8964;SDS011;4517;49.020;12.066;2023-04-24T14:38:11;12.10;;;11.50;;
8964;SDS011;4517;49.020;12.066;2023-04-24T14:40:36;12.30;;;11.70;;
8964;SDS011;4517;49.020;12.066;2023-04-24T14:43:02;11.63;;;11.03;;
8964;SDS011;4517;49.020;12.066;2023-04-24T14:45:28;12.83;;;12.00;;
8964;SDS011;4517;49.020;12.066;2023-04-24T14:47:54;15.07;;;13.50;;
8964;SDS011;4517;49.020;12.066;2023-04-24T14:50:21;12.83;;;12.13;;
8964;SDS011;4517;49.020;12.066;2023-04-24T14:52:46;12.23;;;11.63;;
8964;SDS011;4517;49.020;12.066;2023-04-24T14:55:12;12.97;;;12.00;;
8964;SDS011;4517;49.020;12.066;2023-04-24T14:57:38;13.80;;;13.10;;
8964;SDS011;4517;49.020;12.066;2023-04-24T15:00:04;12.37;;;11.77;;
8964;SDS011;4517;49.020;12.066;2023-04-24T15:02:33;12.40;;;11.80;;
8964;SDS011;4517;49.020;12.066;2023-04-24T15:04:59;13.17;;;12.47;;